Time;durP1;ratioP1;P1;durP2;ratioP2;P2;SDS_P1;SDS_P2;PMS_P1;PMS_P2;Temp;Humidity;BMP_temperature;BMP_pressure;BME280_temperature;BME280_humidity;BME280_pressure;Samples;Min_cycle;Max_cycle;Signal;HPM_P1;HPM_P2
2023/07/03 00:00:18;;;;;;;2.15;1.80;;;;;;;;;;7305349;19;143104;-76
2023/07/03 00:02:51;;;;;;;2.22;1.75;;;;;;;;;;7303768;19;140572;-76
2023/07/03 00:05:21;;;;;;;3.30;1.80;;;;;;;;;;7305226;19;140763;-75
2023/07/03 00:07:48;;;;;;;2.97;1.77;;;;;;;;;;7305142;19;140665;-75
2023/07/03 00:10:16;;;;;;;2.55;1.98;;;;;;;;;;7304377;19;142116;-76
2023/07/03 00:12:44;;;;;;;2.33;1.88;;;;;;;;;;7305376;19;140708;-75
2023/07/03 00:15:12;;;;;;;2.80;2.05;;;;;;;;;;7303656;19;140691;-76
2023/07/03 00:17:40;;;;;;;2.38;1.85;;;;;;;;;;7304705;19;141504;-76
2023/07/03 00:20:11;;;;;;;3.05;2.00;;;;;;;;;;7304620;19;141836;-76
2023/07/03 00:22:38;;;;;;;2.97;2.20;;;;;;;;;;7305501;19;140693;-76
2023/07/03 00:25:06;;;;;;;2.42;1.88;;;;;;;;;;7304545;19;140517;-76
2023/07/03 00:27:33;;;;;;;2.75;2.28;;;;;;;;;;7303196;19;141263;-76
2023/07/03 00:30:00;;;;;;;3.03;2.05;;;;;;;;;;7304370;19;142816;-75
2023/07/03 00:32:28;;;;;;;2.83;2.35;;;;;;;;;;7306537;19;140826;-76
2023/07/03 00:34:55;;;;;;;2.78;2.17;;;;;;;;;;7304485;19;140636;-76
2023/07/03 00:37:23;;;;;;;2.60;2.05;;;;;;;;;;7304293;19;142661;-75
2023/07/03 00:39:50;;;;;;;3.85;2.42;;;;;;;;;;7302383;19;140800;-75
2023/07/03 00:42:17;;;;;;;3.53;2.50;;;;;;;;;;7304356;19;140407;-75
2023/07/03 00:44:44;;;;;;;2.92;2.40;;;;;;;;;;7304200;19;141171;-75
2023/07/03 00:47:11;;;;;;;2.65;2.25;;;;;;;;;;7303344;19;141620;-76
2023/07/03 00:49:39;;;;;;;3.95;2.65;;;;;;;;;;7303637;19;141756;-75
2023/07/03 00:52:08;;;;;;;3.65;2.50;;;;;;;;;;7303665;19;141011;-76
2023/07/03 00:54:35;;;;;;;3.55;2.60;;;;;;;;;;7303677;19;140475;-75
2023/07/03 00:57:03;;;;;;;3.47;2.50;;;;;;;;;;7303582;19;141394;-75
2023/07/03 00:59:33;;;;;;;4.13;3.03;;;;;;;;;;7303123;19;142072;-75
2023/07/03 01:02:22;;;;;;;3.35;2.78;;;;;;;;;;7303184;19;140968;-75
2023/07/03 01:05:09;;;;;;;3.00;2.70;;;;;;;;;;7303856;19;140500;-75
2023/07/03 01:07:38;;;;;;;4.35;2.67;;;;;;;;;;7301872;19;141061;-75
2023/07/03 01:10:10;;;;;;;3.97;3.17;;;;;;;;;;7303358;19;140836;-76
2023/07/03 01:12:41;;;;;;;3.45;3.05;;;;;;;;;;7303386;19;140488;-75
2023/07/03 01:15:11;;;;;;;3.58;2.88;;;;;;;;;;7303290;19;140518;-75
2023/07/03 01:17:41;;;;;;;3.75;2.72;;;;;;;;;;7301871;19;141729;-75
2023/07/03 01:20:13;;;;;;;3.20;2.83;;;;;;;;;;7302778;19;140621;-74
2023/07/03 01:22:51;;;;;;;3.80;2.70;;;;;;;;;;7303818;19;140545;-74
2023/07/03 01:25:22;;;;;;;4.43;3.38;;;;;;;;;;7303032;19;140494;-75
2023/07/03 01:27:54;;;;;;;4.65;3.38;;;;;;;;;;7302246;19;141362;-76
2023/07/03 01:30:23;;;;;;;4.30;3.42;;;;;;;;;;7302795;19;140775;-76
2023/07/03 01:32:52;;;;;;;4.53;3.50;;;;;;;;;;7301944;19;140605;-78
2023/07/03 01:35:21;;;;;;;4.72;3.50;;;;;;;;;;7302119;19;140423;-76
2023/07/03 01:37:50;;;;;;;4.63;3.63;;;;;;;;;;7301745;19;141313;-77
2023/07/03 01:40:21;;;;;;;4.82;3.90;;;;;;;;;;7302957;19;140997;-77
2023/07/03 01:42:49;;;;;;;3.83;3.08;;;;;;;;;;7302988;19;140504;-76
2023/07/03 01:45:16;;;;;;;4.63;3.60;;;;;;;;;;7301873;19;140674;-77
2023/07/03 01:47:44;;;;;;;4.13;3.53;;;;;;;;;;7301326;19;140442;-76
2023/07/03 01:50:16;;;;;;;4.55;3.70;;;;;;;;;;7301655;19;141125;-77
2023/07/03 01:52:54;;;;;;;4.22;3.65;;;;;;;;;;7300567;19;140476;-77
2023/07/03 01:55:24;;;;;;;4.55;3.95;;;;;;;;;;7302042;19;140556;-76
2023/07/03 01:58:15;;;;;;;5.65;3.90;;;;;;;;;;7301729;19;140977;-77
2023/07/03 02:00:45;;;;;;;;;;;;;;;;;;7300380;19;142082;-76
2023/07/03 02:03:37;;;;;;;4.88;3.70;;;;;;;;;;7302090;19;140554;-76
2023/07/03 02:06:14;;;;;;;5.45;3.97;;;;;;;;;;7301148;19;140802;-76
2023/07/03 02:08:41;;;;;;;4.57;3.67;;;;;;;;;;7301039;19;142298;-76
2023/07/03 02:11:16;;;;;;;5.30;4.22;;;;;;;;;;7301453;19;142920;-76
2023/07/03 02:13:43;;;;;;;5.10;3.90;;;;;;;;;;7301057;19;140445;-77
2023/07/03 02:16:11;;;;;;;6.15;4.50;;;;;;;;;;7300230;19;140458;-77
2023/07/03 02:18:38;;;;;;;6.00;4.40;;;;;;;;;;7301493;19;140473;-77
2023/07/03 02:21:05;;;;;;;5.45;4.22;;;;;;;;;;7300469;19;142362;-76
2023/07/03 02:23:33;;;;;;;5.18;4.38;;;;;;;;;;7301003;19;140455;-76
2023/07/03 02:26:00;;;;;;;5.75;3.97;;;;;;;;;;7301479;19;140672;-76
2023/07/03 02:28:28;;;;;;;6.07;4.53;;;;;;;;;;7301060;19;140543;-76
2023/07/03 02:30:55;;;;;;;5.88;4.57;;;;;;;;;;7299996;19;142368;-76
2023/07/03 02:33:23;;;;;;;6.00;4.45;;;;;;;;;;7300985;19;140365;-76
2023/07/03 02:35:50;;;;;;;5.57;4.40;;;;;;;;;;7300759;19;140674;-76
2023/07/03 02:38:18;;;;;;;5.20;4.43;;;;;;;;;;7300015;19;140503;-76
2023/07/03 02:40:46;;;;;;;6.28;4.70;;;;;;;;;;7300719;19;143078;-77
2023/07/03 02:43:14;;;;;;;5.85;4.70;;;;;;;;;;7300487;19;140391;-76
2023/07/03 02:45:42;;;;;;;6.05;4.53;;;;;;;;;;7299907;19;140356;-77
2023/07/03 02:48:10;;;;;;;5.57;4.55;;;;;;;;;;7299105;19;141299;-77
2023/07/03 02:50:37;;;;;;;6.10;4.65;;;;;;;;;;7300379;19;142161;-76
2023/07/03 02:53:05;;;;;;;7.28;5.03;;;;;;;;;;7300100;19;140688;-77
2023/07/03 02:55:32;;;;;;;6.47;5.32;;;;;;;;;;7300461;19;140375;-76
2023/07/03 02:57:59;;;;;;;6.50;5.32;;;;;;;;;;7299597;19;141279;-77
2023/07/03 03:00:28;;;;;;;5.75;4.78;;;;;;;;;;7299934;19;141873;-77
2023/07/03 03:02:55;;;;;;;6.35;5.18;;;;;;;;;;7301335;19;140400;-76
2023/07/03 03:05:22;;;;;;;7.43;5.40;;;;;;;;;;7308087;19;141853;-76
2023/07/03 03:07:49;;;;;;;6.82;5.38;;;;;;;;;;7306697;19;141628;-77
2023/07/03 03:10:17;;;;;;;7.03;5.32;;;;;;;;;;7305439;19;142626;-76
2023/07/03 03:12:44;;;;;;;7.35;5.05;;;;;;;;;;7307084;19;140722;-77
2023/07/03 03:15:11;;;;;;;6.32;5.28;;;;;;;;;;7304893;19;140970;-77
2023/07/03 03:17:39;;;;;;;6.97;5.32;;;;;;;;;;7306332;19;141453;-77
2023/07/03 03:20:07;;;;;;;6.97;5.50;;;;;;;;;;7306265;19;142754;-76
2023/07/03 03:22:35;;;;;;;7.10;5.20;;;;;;;;;;7306863;19;140713;-77
2023/07/03 03:25:02;;;;;;;7.55;5.47;;;;;;;;;;7305356;19;140516;-77
2023/07/03 03:27:29;;;;;;;7.68;5.43;;;;;;;;;;7305939;19;141960;-76
2023/07/03 03:29:56;;;;;;;6.63;4.97;;;;;;;;;;7306617;19;141300;-77
2023/07/03 03:32:27;;;;;;;7.50;5.72;;;;;;;;;;7305753;19;140684;-77
2023/07/03 03:34:55;;;;;;;;;;;;;;;;;;7306875;19;140559;-76
2023/07/03 03:37:22;;;;;;;7.35;5.55;;;;;;;;;;7306282;19;146361;-77
2023/07/03 03:39:49;;;;;;;8.65;5.88;;;;;;;;;;7305980;19;141911;-76
2023/07/03 03:42:16;;;;;;;7.32;5.78;;;;;;;;;;7306046;19;140631;-76
2023/07/03 03:44:44;;;;;;;7.75;5.55;;;;;;;;;;7306453;19;140721;-76
2023/07/03 03:47:11;;;;;;;8.02;6.03;;;;;;;;;;7304719;19;141390;-76
2023/07/03 03:49:39;;;;;;;7.30;5.88;;;;;;;;;;7305640;19;142537;-75
2023/07/03 03:52:07;;;;;;;8.35;5.95;;;;;;;;;;7306451;19;140620;-76
2023/07/03 03:54:34;;;;;;;9.45;6.45;;;;;;;;;;7305327;19;140691;-76
2023/07/03 03:57:01;;;;;;;8.02;6.05;;;;;;;;;;7305547;19;141662;-75
2023/07/03 03:59:28;;;;;;;7.85;6.00;;;;;;;;;;7305717;19;141976;-75
2023/07/03 04:01:55;;;;;;;8.65;5.97;;;;;;;;;;7304764;19;140429;-76
2023/07/03 04:04:23;;;;;;;8.25;5.88;;;;;;;;;;7305858;19;140395;-76
2023/07/03 04:06:52;;;;;;;7.93;5.85;;;;;;;;;;7305400;19;141351;-77
2023/07/03 04:09:19;;;;;;;8.35;6.05;;;;;;;;;;7304563;19;142852;-77
2023/07/03 04:11:46;;;;;;;9.02;6.60;;;;;;;;;;7304967;19;140826;-77
2023/07/03 04:14:15;;;;;;;9.05;6.38;;;;;;;;;;7303726;19;140587;-77
2023/07/03 04:16:43;;;;;;;8.02;5.85;;;;;;;;;;7303562;19;141367;-76
2023/07/03 04:19:11;;;;;;;8.35;6.57;;;;;;;;;;7304928;19;141856;-75
2023/07/03 04:21:39;;;;;;;8.30;5.90;;;;;;;;;;7305003;19;140338;-76
2023/07/03 04:24:06;;;;;;;7.60;6.20;;;;;;;;;;7303336;19;140508;-76
2023/07/03 04:26:36;;;;;;;10.10;6.80;;;;;;;;;;7304284;19;141294;-75
2023/07/03 04:29:04;;;;;;;9.48;7.10;;;;;;;;;;7304453;19;142501;-77
2023/07/03 04:31:32;;;;;;;8.43;6.43;;;;;;;;;;7304848;19;140736;-76
2023/07/03 04:34:00;;;;;;;10.25;7.20;;;;;;;;;;7304281;19;140684;-75
2023/07/03 04:36:27;;;;;;;8.60;6.57;;;;;;;;;;7304098;19;141274;-73
2023/07/03 04:38:57;;;;;;;9.50;6.70;;;;;;;;;;7304184;19;142592;-73
2023/07/03 04:41:27;;;;;;;8.63;6.50;;;;;;;;;;7304570;19;140697;-73
2023/07/03 04:43:57;;;;;;;9.30;6.37;;;;;;;;;;7303928;19;140661;-73
2023/07/03 04:46:27;;;;;;;9.03;6.47;;;;;;;;;;7302340;19;141291;-74
2023/07/03 04:48:59;;;;;;;8.98;6.93;;;;;;;;;;7303474;19;142876;-74
2023/07/03 04:51:30;;;;;;;9.68;6.70;;;;;;;;;;7303736;19;140436;-74
2023/07/03 04:54:00;;;;;;;10.27;6.50;;;;;;;;;;7304076;19;140559;-75
2023/07/03 04:56:28;;;;;;;10.63;7.13;;;;;;;;;;7303677;19;141430;-74
2023/07/03 04:58:55;;;;;;;9.40;6.75;;;;;;;;;;7303895;19;141018;-73
2023/07/03 05:01:24;;;;;;;7.45;5.80;;;;;;;;;;7303405;19;140458;-75
2023/07/03 05:03:51;;;;;;;9.38;7.20;;;;;;;;;;7303116;19;140453;-73
2023/07/03 05:06:18;;;;;;;8.20;6.40;;;;;;;;;;7302662;19;141532;-73
2023/07/03 05:08:46;;;;;;;7.90;6.03;;;;;;;;;;7303202;19;142604;-72
2023/07/03 05:11:14;;;;;;;9.05;5.82;;;;;;;;;;7303131;19;140399;-73
2023/07/03 05:13:41;;;;;;;8.48;5.55;;;;;;;;;;7303309;19;140672;-73
2023/07/03 05:16:08;;;;;;;8.57;6.05;;;;;;;;;;7303019;19;141286;-73
2023/07/03 05:18:35;;;;;;;9.52;6.75;;;;;;;;;;7301912;19;142013;-72
2023/07/03 05:21:06;;;;;;;8.27;5.47;;;;;;;;;;7303135;19;140552;-73
2023/07/03 05:23:33;;;;;;;8.63;6.18;;;;;;;;;;7303211;19;140661;-73
2023/07/03 05:26:00;;;;;;;8.38;6.07;;;;;;;;;;7301044;19;142260;-74
2023/07/03 05:28:27;;;;;;;7.43;5.45;;;;;;;;;;7301737;19;142797;-74
2023/07/03 05:30:56;;;;;;;8.20;5.93;;;;;;;;;;7303570;19;140331;-73
2023/07/03 05:33:24;;;;;;;9.80;5.90;;;;;;;;;;7301944;19;140655;-73
2023/07/03 05:35:52;;;;;;;8.50;6.20;;;;;;;;;;7302095;19;141290;-73
2023/07/03 05:38:21;;;;;;;8.55;6.15;;;;;;;;;;7303895;19;140756;-73
2023/07/03 05:40:50;;;;;;;6.80;5.47;;;;;;;;;;7302454;19;140608;-73
2023/07/03 05:43:18;;;;;;;7.20;5.60;;;;;;;;;;7302401;19;140586;-73
2023/07/03 05:45:48;;;;;;;8.55;6.10;;;;;;;;;;7301017;19;141423;-74
2023/07/03 05:48:16;;;;;;;7.88;6.30;;;;;;;;;;7301120;19;141473;-73
2023/07/03 05:50:44;;;;;;;8.57;5.93;;;;;;;;;;7301955;19;140693;-73
2023/07/03 05:53:12;;;;;;;7.00;5.65;;;;;;;;;;7301636;19;140589;-73
2023/07/03 05:55:39;;;;;;;6.95;5.47;;;;;;;;;;7301707;19;141844;-73
2023/07/03 05:58:06;;;;;;;7.63;5.47;;;;;;;;;;7300046;19;141957;-73
2023/07/03 06:00:34;;;;;;;8.70;5.95;;;;;;;;;;7301708;19;140608;-73
2023/07/03 06:03:02;;;;;;;7.60;5.70;;;;;;;;;;7300924;19;140758;-72
2023/07/03 06:05:29;;;;;;;6.60;5.30;;;;;;;;;;7301427;19;140905;-73
2023/07/03 06:07:56;;;;;;;6.97;5.25;;;;;;;;;;7300548;19;142637;-73
2023/07/03 06:10:32;;;;;;;7.82;5.78;;;;;;;;;;7301481;19;140535;-73
2023/07/03 06:12:59;;;;;;;6.90;5.47;;;;;;;;;;7301698;19;140659;-74
2023/07/03 06:15:27;;;;;;;7.10;5.97;;;;;;;;;;7300374;19;141983;-73
2023/07/03 06:17:55;;;;;;;8.13;5.57;;;;;;;;;;7300869;19;141839;-73
2023/07/03 06:20:23;;;;;;;7.03;5.47;;;;;;;;;;7299528;19;140708;-73
2023/07/03 06:22:50;;;;;;;7.25;5.80;;;;;;;;;;7302887;19;141454;-73
2023/07/03 06:25:17;;;;;;;6.88;5.78;;;;;;;;;;7300746;19;141968;-74
2023/07/03 06:27:44;;;;;;;6.40;5.25;;;;;;;;;;7300475;19;142580;-73
2023/07/03 06:30:11;;;;;;;6.15;5.40;;;;;;;;;;7301000;19;140671;-73
2023/07/03 06:32:39;;;;;;;6.53;5.20;;;;;;;;;;7300621;19;140682;-73
2023/07/03 06:35:07;;;;;;;8.57;5.50;;;;;;;;;;7300548;19;141604;-73
2023/07/03 06:37:35;;;;;;;5.82;5.10;;;;;;;;;;7299948;19;142276;-73
2023/07/03 06:40:09;;;;;;;6.22;5.07;;;;;;;;;;7301340;19;140516;-73
2023/07/03 06:42:37;;;;;;;6.68;5.28;;;;;;;;;;7300503;19;140616;-73
2023/07/03 06:45:05;;;;;;;5.30;4.80;;;;;;;;;;7300665;19;140448;-73
2023/07/03 06:47:33;;;;;;;6.05;5.40;;;;;;;;;;7299475;19;141968;-74
2023/07/03 06:50:00;;;;;;;5.55;4.80;;;;;;;;;;7298682;19;140602;-73
2023/07/03 06:52:27;;;;;;;5.60;5.07;;;;;;;;;;7300589;19;140464;-73
2023/07/03 06:54:54;;;;;;;5.68;5.13;;;;;;;;;;7302442;19;140400;-73
2023/07/03 06:57:21;;;;;;;5.47;4.97;;;;;;;;;;7300008;19;141628;-73
2023/07/03 06:59:50;;;;;;;6.43;5.32;;;;;;;;;;7299958;19;140384;-74
2023/07/03 07:02:17;;;;;;;5.45;4.82;;;;;;;;;;7299945;19;140545;-73
2023/07/03 07:04:45;;;;;;;5.93;5.32;;;;;;;;;;7298898;19;141895;-73
2023/07/03 07:07:12;;;;;;;5.65;4.72;;;;;;;;;;7299803;19;142001;-75
2023/07/03 07:09:39;;;;;;;5.93;5.32;;;;;;;;;;7300162;19;140611;-70
2023/07/03 07:12:07;;;;;;;6.78;5.30;;;;;;;;;;7299308;19;140587;-77
2023/07/03 07:14:35;;;;;;;8.88;5.57;;;;;;;;;;7299109;19;141735;-77
2023/07/03 07:17:02;;;;;;;6.32;5.32;;;;;;;;;;7299460;19;142658;-76
2023/07/03 07:19:30;;;;;;;6.70;5.43;;;;;;;;;;7298550;19;140705;-76
2023/07/03 07:21:58;;;;;;;7.38;5.45;;;;;;;;;;7299384;19;140745;-79
2023/07/03 07:24:27;;;;;;;6.95;5.65;;;;;;;;;;7296745;19;141898;-79
2023/07/03 07:26:54;;;;;;;7.23;5.33;;;;;;;;;;7299368;19;143070;-77
2023/07/03 07:29:25;;;;;;;5.70;4.78;;;;;;;;;;7299026;19;140511;-77
2023/07/03 07:31:56;;;;;;;6.70;5.13;;;;;;;;;;7298736;19;141187;-76
2023/07/03 07:34:24;;;;;;;6.93;4.88;;;;;;;;;;7297345;19;140843;-78
2023/07/03 07:36:53;;;;;;;6.75;4.70;;;;;;;;;;7298287;19;142715;-77
2023/07/03 07:39:20;;;;;;;6.22;4.90;;;;;;;;;;7298779;19;140699;-78
2023/07/03 07:41:50;;;;;;;6.78;5.00;;;;;;;;;;7299167;19;140648;-79
2023/07/03 07:44:18;;;;;;;6.30;4.97;;;;;;;;;;7296391;19;141223;-77
2023/07/03 07:46:49;;;;;;;6.00;4.57;;;;;;;;;;7297917;19;142077;-76
2023/07/03 07:49:16;;;;;;;6.13;4.68;;;;;;;;;;7298067;19;140643;-77
2023/07/03 07:51:43;;;;;;;6.30;4.40;;;;;;;;;;7305119;19;140775;-75
2023/07/03 07:54:10;;;;;;;5.43;4.70;;;;;;;;;;7305028;19;141538;-76
2023/07/03 07:56:37;;;;;;;5.40;4.40;;;;;;;;;;7305418;19;142982;-76
2023/07/03 07:59:05;;;;;;;5.45;4.70;;;;;;;;;;7305142;19;140625;-74
2023/07/03 08:01:32;;;;;;;6.90;4.32;;;;;;;;;;7304607;19;140495;-78
2023/07/03 08:03:59;;;;;;;22.00;6.15;;;;;;;;;;7304931;19;141349;-77
2023/07/03 08:06:27;;;;;;;11.60;6.45;;;;;;;;;;7304858;19;141988;-69
2023/07/03 08:08:54;;;;;;;11.73;6.38;;;;;;;;;;7305207;19;140613;-70
2023/07/03 08:11:21;;;;;;;13.43;6.25;;;;;;;;;;7304642;19;140454;-69
2023/07/03 08:13:48;;;;;;;9.07;5.82;;;;;;;;;;7303799;19;141216;-69
2023/07/03 08:16:17;;;;;;;15.93;6.10;;;;;;;;;;7304612;19;142174;-69
2023/07/03 08:18:44;;;;;;;13.38;5.78;;;;;;;;;;7304737;19;140843;-69
2023/07/03 08:21:15;;;;;;;7.75;5.43;;;;;;;;;;7304595;19;140902;-70
2023/07/03 08:23:43;;;;;;;9.05;5.70;;;;;;;;;;7304282;19;142319;-72
2023/07/03 08:26:18;;;;;;;8.80;5.63;;;;;;;;;;7303936;19;141942;-72
2023/07/03 08:28:45;;;;;;;10.93;5.75;;;;;;;;;;7302696;19;140650;-75
2023/07/03 08:31:12;;;;;;;6.90;5.30;;;;;;;;;;7304179;19;140484;-74
2023/07/03 08:33:39;;;;;;;8.88;5.63;;;;;;;;;;7303138;19;141411;-76
2023/07/03 08:36:07;;;;;;;9.20;5.13;;;;;;;;;;7303361;19;141877;-73
2023/07/03 08:38:37;;;;;;;9.25;5.40;;;;;;;;;;7304236;19;140432;-75
2023/07/03 08:41:04;;;;;;;8.60;5.25;;;;;;;;;;7304115;19;140401;-76
2023/07/03 08:43:40;;;;;;;7.43;5.25;;;;;;;;;;7304945;19;141993;-75
2023/07/03 08:46:11;;;;;;;7.10;5.40;;;;;;;;;;7304503;19;142086;-79
2023/07/03 08:48:41;;;;;;;8.63;5.20;;;;;;;;;;7302838;19;140760;-77
2023/07/03 08:51:14;;;;;;;6.93;4.85;;;;;;;;;;7304380;19;140712;-79
2023/07/03 08:53:43;;;;;;;7.78;5.00;;;;;;;;;;7304306;19;140885;-76
2023/07/03 08:56:21;;;;;;;6.97;5.15;;;;;;;;;;7303817;19;142458;-81
2023/07/03 08:58:54;;;;;;;6.63;4.97;;;;;;;;;;7303894;19;142282;-79
2023/07/03 09:01:34;;;;;;;7.78;4.85;;;;;;;;;;7303588;19;140489;-79
2023/07/03 09:04:20;;;;;;;6.65;4.97;;;;;;;;;;7302603;19;141568;-75
2023/07/03 09:06:53;;;;;;;7.15;4.30;;;;;;;;;;7304388;19;142087;-76
2023/07/03 09:09:32;;;;;;;6.18;4.70;;;;;;;;;;7304119;19;140612;-79
2023/07/03 09:12:46;;;;;;;5.97;5.00;;;;;;;;;;7301923;19;140866;-81
2023/07/03 09:15:46;;;;;;;6.78;4.80;;;;;;;;;;7298981;19;140653;-82
2023/07/03 09:18:19;;;;;;;6.80;5.00;;;;;;;;;;7298168;19;140968;-80
2023/07/03 09:20:47;;;;;;;7.25;4.65;;;;;;;;;;7301412;19;140521;-80
2023/07/03 09:23:26;;;;;;;6.70;4.78;;;;;;;;;;7300668;19;140726;-77
2023/07/03 09:26:02;;;;;;;5.68;4.40;;;;;;;;;;7302056;19;141404;-78
2023/07/03 09:28:36;;;;;;;6.55;4.80;;;;;;;;;;7302625;19;142904;-78
2023/07/03 09:31:03;;;;;;;5.78;4.47;;;;;;;;;;7300798;19;140753;-78
2023/07/03 09:33:31;;;;;;;6.05;4.47;;;;;;;;;;7299983;19;140786;-79
2023/07/03 09:36:22;;;;;;;5.97;4.97;;;;;;;;;;7303084;19;141018;-78
2023/07/03 09:38:50;;;;;;;6.30;4.40;;;;;;;;;;7300424;19;143857;-78
2023/07/03 09:41:29;;;;;;;5.38;4.28;;;;;;;;;;7299794;19;140673;-78
2023/07/03 09:43:57;;;;;;;5.03;4.10;;;;;;;;;;7300837;19;140752;-80
2023/07/03 09:46:24;;;;;;;5.97;4.75;;;;;;;;;;7300640;19;141884;-80
2023/07/03 09:48:52;;;;;;;5.57;4.30;;;;;;;;;;7301769;19;141163;-78
2023/07/03 09:51:20;;;;;;;5.82;4.28;;;;;;;;;;7302128;19;140775;-84
2023/07/03 09:53:47;;;;;;;5.78;4.18;;;;;;;;;;7303579;19;140613;-89
2023/07/03 09:56:17;;;;;;;4.70;4.20;;;;;;;;;;7305297;19;140986;-91
2023/07/03 09:58:47;;;;;;;;;;;;;;;;;;7304002;19;141854;-89
2023/07/03 10:01:24;;;;;;;6.30;4.35;;;;;;;;;;7304527;19;140796;-88
2023/07/03 10:04:02;;;;;;;5.80;3.87;;;;;;;;;;7303399;19;140685;-84
2023/07/03 10:07:06;;;;;;;4.95;3.90;;;;;;;;;;7304235;19;143102;-82
2023/07/03 10:09:38;;;;;;;6.18;4.45;;;;;;;;;;7302768;19;141932;-87
2023/07/03 10:12:17;;;;;;;5.60;3.83;;;;;;;;;;7305683;19;140449;-85
2023/07/03 10:14:57;;;;;;;5.53;4.13;;;;;;;;;;7306705;19;140476;-83
2023/07/03 10:17:43;;;;;;;4.85;4.10;;;;;;;;;;7302496;19;140504;-87
2023/07/03 10:20:18;;;;;;;5.15;3.90;;;;;;;;;;7302149;19;140785;-79
2023/07/03 10:22:49;;;;;;;4.78;3.78;;;;;;;;;;7302073;19;140785;-76
2023/07/03 10:25:23;;;;;;;4.90;4.07;;;;;;;;;;7302287;19;140368;-72
2023/07/03 10:27:57;;;;;;;4.82;3.83;;;;;;;;;;7300103;19;141450;-72
2023/07/03 10:30:30;;;;;;;5.00;4.00;;;;;;;;;;7300937;19;141560;-72
2023/07/03 10:33:03;;;;;;;4.45;3.78;;;;;;;;;;7300159;19;140498;-72
2023/07/03 10:35:33;;;;;;;5.07;4.10;;;;;;;;;;7298468;19;140754;-72
2023/07/03 10:38:11;;;;;;;6.05;4.35;;;;;;;;;;7298569;19;142936;-73
2023/07/03 10:40:46;;;;;;;4.85;3.97;;;;;;;;;;7300295;19;142585;-72
2023/07/03 10:43:16;;;;;;;4.85;3.92;;;;;;;;;;7300248;19;140570;-72
2023/07/03 10:45:45;;;;;;;4.65;3.97;;;;;;;;;;7300616;19;140754;-72
2023/07/03 10:48:26;;;;;;;5.97;4.25;;;;;;;;;;7298964;19;141041;-72
2023/07/03 10:51:13;;;;;;;4.93;3.78;;;;;;;;;;7299760;19;141730;-72
2023/07/03 10:54:00;;;;;;;4.78;3.70;;;;;;;;;;7297814;19;140725;-81
2023/07/03 10:56:43;;;;;;;4.75;4.00;;;;;;;;;;7300832;19;140572;-73
2023/07/03 10:59:17;;;;;;;4.78;3.92;;;;;;;;;;7300444;19;140886;-72
2023/07/03 11:01:56;;;;;;;5.40;4.07;;;;;;;;;;7299572;19;142948;-72
2023/07/03 11:04:53;;;;;;;5.07;3.88;;;;;;;;;;7299274;19;140617;-72
2023/07/03 11:07:21;;;;;;;5.15;3.78;;;;;;;;;;7298389;19;140968;-72
2023/07/03 11:09:54;;;;;;;6.40;4.03;;;;;;;;;;7299696;19;141477;-72
2023/07/03 11:12:32;;;;;;;4.47;3.65;;;;;;;;;;7299306;19;141988;-71
2023/07/03 11:15:20;;;;;;;6.75;3.90;;;;;;;;;;7298879;19;140529;-72
2023/07/03 11:17:59;;;;;;;5.55;4.05;;;;;;;;;;7299766;19;140838;-74
2023/07/03 11:20:48;;;;;;;4.90;3.83;;;;;;;;;;7299163;19;140584;-72
2023/07/03 11:23:41;;;;;;;5.20;3.80;;;;;;;;;;7299802;19;141386;-76
2023/07/03 11:26:12;;;;;;;5.70;3.80;;;;;;;;;;7304706;19;140666;-83
2023/07/03 11:28:50;;;;;;;4.90;4.13;;;;;;;;;;7306047;19;140526;-80
2023/07/03 11:31:19;;;;;;;4.38;3.40;;;;;;;;;;7305475;19;140787;-80
2023/07/03 11:33:49;;;;;;;;;;;;;;;;;;7305218;19;141206;-81
2023/07/03 11:36:41;;;;;;;4.90;3.75;;;;;;;;;;7305646;19;140416;-81
2023/07/03 11:39:29;;;;;;;4.88;3.80;;;;;;;;;;7305392;19;140631;-79
2023/07/03 11:41:59;;;;;;;5.40;4.15;;;;;;;;;;7304849;19;140581;-79
2023/07/03 11:44:46;;;;;;;5.28;3.67;;;;;;;;;;7305258;19;141609;-83
2023/07/03 11:47:28;;;;;;;4.63;3.58;;;;;;;;;;7305869;19;140437;-80
2023/07/03 11:50:01;;;;;;;5.10;3.55;;;;;;;;;;7305906;19;140451;-84
2023/07/03 11:52:38;;;;;;;4.68;3.30;;;;;;;;;;7304170;19;141113;-81
2023/07/03 11:55:14;;;;;;;4.60;3.63;;;;;;;;;;7305549;19;143757;-81
2023/07/03 11:57:44;;;;;;;5.45;3.72;;;;;;;;;;7305950;19;140460;-80
2023/07/03 12:00:27;;;;;;;4.53;3.42;;;;;;;;;;7305819;19;140420;-80
2023/07/03 12:03:06;;;;;;;4.95;3.47;;;;;;;;;;7304139;19;141338;-79
2023/07/03 12:05:42;;;;;;;5.57;3.88;;;;;;;;;;7304429;19;141819;-80
2023/07/03 12:08:36;;;;;;;5.85;3.90;;;;;;;;;;7306414;19;140392;-79
2023/07/03 12:11:08;;;;;;;5.03;3.72;;;;;;;;;;7305020;19;140301;-78
2023/07/03 12:13:46;;;;;;;4.22;3.80;;;;;;;;;;7305012;19;141287;-78
2023/07/03 12:16:17;;;;;;;5.28;3.58;;;;;;;;;;7304330;19;140802;-82
2023/07/03 12:18:54;;;;;;;4.70;3.55;;;;;;;;;;7308226;19;140529;-81
2023/07/03 12:21:23;;;;;;;5.32;3.97;;;;;;;;;;7303737;19;141185;-83
2023/07/03 12:23:53;;;;;;;4.70;3.42;;;;;;;;;;7305512;19;141788;-82
2023/07/03 12:26:26;;;;;;;4.97;3.60;;;;;;;;;;7305376;19;141959;-76
2023/07/03 12:29:03;;;;;;;5.20;3.72;;;;;;;;;;7303679;19;140619;-72
2023/07/03 12:31:31;;;;;;;4.63;3.58;;;;;;;;;;7302473;19;140800;-73
2023/07/03 12:34:00;;;;;;;5.15;3.78;;;;;;;;;;7302698;19;140740;-73
2023/07/03 12:36:32;;;;;;;4.72;3.30;;;;;;;;;;7302343;19;142235;-77
2023/07/03 12:39:14;;;;;;;4.80;3.70;;;;;;;;;;7303798;19;140626;-73
2023/07/03 12:41:41;;;;;;;4.90;3.53;;;;;;;;;;7303864;19;140648;-74
2023/07/03 12:44:10;;;;;;;5.25;3.95;;;;;;;;;;7304180;19;140774;-74
2023/07/03 12:46:40;;;;;;;4.57;3.50;;;;;;;;;;7303899;19;142550;-77
2023/07/03 12:49:09;;;;;;;4.75;3.33;;;;;;;;;;7303475;19;140732;-86
2023/07/03 12:51:48;;;;;;;4.55;3.80;;;;;;;;;;7302750;19;140836;-88
2023/07/03 12:54:16;;;;;;;4.38;3.70;;;;;;;;;;7304792;19;140911;-77
2023/07/03 12:56:44;;;;;;;5.50;3.50;;;;;;;;;;7302670;19;141775;-78
2023/07/03 12:59:16;;;;;;;4.70;3.67;;;;;;;;;;7304238;19;140915;-79
2023/07/03 13:01:48;;;;;;;5.10;3.75;;;;;;;;;;7303678;19;140795;-77
2023/07/03 13:04:27;;;;;;;4.65;3.65;;;;;;;;;;7302968;19;142185;-78
2023/07/03 13:06:55;;;;;;;4.82;3.70;;;;;;;;;;7302607;19;141965;-78
2023/07/03 13:09:25;;;;;;;5.35;3.30;;;;;;;;;;7303273;19;140428;-77
2023/07/03 13:11:52;;;;;;;3.58;3.08;;;;;;;;;;7303177;19;140542;-77
2023/07/03 13:14:22;;;;;;;4.28;3.42;;;;;;;;;;7302719;19;141407;-78
2023/07/03 13:16:51;;;;;;;;;;;;;;;;;;7303610;19;142122;-85
2023/07/03 13:19:34;;;;;;;4.78;3.50;;;;;;;;;;7306326;19;140878;-82
2023/07/03 13:22:07;;;;;;;4.75;3.65;;;;;;;;;;7301901;19;141002;-81
2023/07/03 13:24:46;;;;;;;5.30;3.47;;;;;;;;;;7303291;19;141502;-79
2023/07/03 13:27:22;;;;;;;3.55;3.13;;;;;;;;;;7306129;19;141598;-79
2023/07/03 13:29:55;;;;;;;4.07;3.33;;;;;;;;;;7303257;19;140701;-79
2023/07/03 13:32:23;;;;;;;4.63;3.58;;;;;;;;;;7303644;19;140393;-79
2023/07/03 13:35:00;;;;;;;4.50;3.55;;;;;;;;;;7302682;19;140570;-77
2023/07/03 13:37:31;;;;;;;3.92;3.28;;;;;;;;;;7303096;19;142406;-79
2023/07/03 13:39:58;;;;;;;;;;;;;;;;;;7305134;19;140766;-80
2023/07/03 13:42:28;;;;;;;3.70;2.97;;;;;;;;;;7307332;19;140762;-80
2023/07/03 13:44:56;;;;;;;3.97;3.17;;;;;;;;;;7310263;19;140773;-80
2023/07/03 13:47:23;;;;;;;3.70;3.28;;;;;;;;;;7302583;19;142031;-79
2023/07/03 13:49:57;;;;;;;4.15;3.20;;;;;;;;;;7311846;19;141044;-79
2023/07/03 13:52:24;;;;;;;4.03;3.38;;;;;;;;;;7319501;19;140663;-81
2023/07/03 13:54:51;;;;;;;3.40;3.10;;;;;;;;;;7313987;19;140592;-84
2023/07/03 13:57:19;;;;;;;4.80;3.35;;;;;;;;;;7304144;19;141194;-83
2023/07/03 13:59:46;;;;;;;4.70;3.33;;;;;;;;;;7303726;19;140545;-77
2023/07/03 14:02:19;;;;;;;4.82;3.75;;;;;;;;;;7303946;19;140513;-80
2023/07/03 14:05:00;;;;;;;5.95;3.90;;;;;;;;;;7302811;19;142034;-82
2023/07/03 14:07:40;;;;;;;6.10;4.50;;;;;;;;;;7303773;19;140809;31
2023/07/03 14:10:08;;;;;;;;;;;;;;;;;;7304755;19;140568;-82
2023/07/03 14:12:35;;;;;;;8.48;4.70;;;;;;;;;;7302291;19;140736;-77
2023/07/03 14:15:24;;;;;;;6.93;4.97;;;;;;;;;;7302038;19;141424;-77
2023/07/03 14:17:52;;;;;;;7.10;4.50;;;;;;;;;;7303752;19;142112;-77
2023/07/03 14:20:21;;;;;;;8.02;4.80;;;;;;;;;;7303097;19;140604;-79
2023/07/03 14:22:48;;;;;;;7.38;4.63;;;;;;;;;;7304649;19;140640;-79
2023/07/03 14:25:16;;;;;;;7.55;4.78;;;;;;;;;;7303179;19;141539;-76
2023/07/03 14:27:44;;;;;;;8.95;4.80;;;;;;;;;;7302106;19;140660;-76
2023/07/03 14:30:13;;;;;;;7.72;4.43;;;;;;;;;;7301345;19;141031;-76
2023/07/03 14:32:44;;;;;;;9.63;4.82;;;;;;;;;;7302295;19;141097;-77
2023/07/03 14:35:23;;;;;;;8.38;4.50;;;;;;;;;;7301524;19;140646;-74
2023/07/03 14:37:51;;;;;;;6.80;4.40;;;;;;;;;;7300383;19;140891;-77
2023/07/03 14:40:18;;;;;;;6.82;4.60;;;;;;;;;;7300395;19;140630;-78
2023/07/03 14:42:46;;;;;;;7.30;4.50;;;;;;;;;;7302265;19;140721;-78
2023/07/03 14:45:13;;;;;;;8.52;4.80;;;;;;;;;;7301270;19;141522;-79
2023/07/03 14:47:41;;;;;;;6.65;4.43;;;;;;;;;;7300097;19;142579;-79
2023/07/03 14:50:10;;;;;;;7.20;4.63;;;;;;;;;;7299535;19;140706;-77
2023/07/03 14:52:39;;;;;;;7.22;4.55;;;;;;;;;;7302180;19;140536;-77